createdAt,value
2022-09-26T00:01:32.753Z,16.90
2022-09-26T00:04:03.132Z,16.90
2022-09-26T00:06:31.623Z,16.90
2022-09-26T00:09:00.548Z,16.90
2022-09-26T00:11:30.952Z,16.90
2022-09-26T00:14:08.822Z,16.90
2022-09-26T00:16:37.386Z,16.90
2022-09-26T00:19:06.419Z,16.90
2022-09-26T00:21:34.937Z,16.90
2022-09-26T00:24:03.768Z,16.90
2022-09-26T00:26:33.664Z,16.90
2022-09-26T00:29:07.497Z,16.90
2022-09-26T00:31:40.055Z,16.90
2022-09-26T00:34:08.909Z,16.90
2022-09-26T00:36:38.687Z,16.90
2022-09-26T00:39:08.968Z,16.90
2022-09-26T00:41:38.342Z,16.90
2022-09-26T00:44:42.289Z,16.80
2022-09-26T00:47:38.218Z,16.80
2022-09-26T00:50:13.352Z,16.80
2022-09-26T00:52:47.999Z,16.80
2022-09-26T00:55:20.525Z,16.80
2022-09-26T00:57:55.500Z,16.80
2022-09-26T01:00:25.182Z,16.80
2022-09-26T01:02:54.680Z,16.80
2022-09-26T01:05:24.922Z,16.80
2022-09-26T01:07:54.673Z,16.80
2022-09-26T01:10:24.599Z,16.80
2022-09-26T01:12:53.590Z,16.80
2022-09-26T01:15:21.974Z,16.80
2022-09-26T01:17:52.240Z,16.80
2022-09-26T01:20:31.157Z,16.80
2022-09-26T01:23:48.936Z,16.80
2022-09-26T01:26:46.568Z,16.80
2022-09-26T01:29:42.182Z,16.80
2022-09-26T01:32:38.292Z,16.80
2022-09-26T01:35:13.422Z,16.80
2022-09-26T01:37:51.550Z,16.80
2022-09-26T01:40:26.553Z,16.80
2022-09-26T01:43:06.756Z,16.80
2022-09-26T01:45:45.213Z,16.80
2022-09-26T01:48:19.458Z,16.80
2022-09-26T01:50:50.862Z,16.70
2022-09-26T01:53:24.072Z,16.70
2022-09-26T01:56:01.154Z,16.70
2022-09-26T01:58:35.067Z,16.70
2022-09-26T02:01:09.096Z,16.70
2022-09-26T02:03:43.926Z,16.70
2022-09-26T02:06:15.936Z,16.70
2022-09-26T02:08:49.943Z,16.70
2022-09-26T02:11:24.754Z,16.70
2022-09-26T02:13:57.870Z,16.70
2022-09-26T02:16:30.370Z,16.70
2022-09-26T02:19:07.822Z,16.70
2022-09-26T02:21:36.214Z,16.70
2022-09-26T02:24:04.698Z,16.70
2022-09-26T02:26:33.806Z,16.70
2022-09-26T02:29:02.754Z,16.70
2022-09-26T02:31:35.524Z,16.70
2022-09-26T02:34:06.343Z,16.70
2022-09-26T02:36:34.870Z,16.70
2022-09-26T02:39:06.103Z,16.70
2022-09-26T02:41:43.444Z,16.60
2022-09-26T02:44:25.927Z,16.60
2022-09-26T02:47:16.437Z,16.60
2022-09-26T02:50:02.991Z,16.60
2022-09-26T02:52:40.639Z,16.60
2022-09-26T02:55:18.963Z,16.60
2022-09-26T02:57:55.530Z,16.60
2022-09-26T03:00:28.619Z,16.60
2022-09-26T03:03:03.798Z,16.60
2022-09-26T03:05:36.064Z,16.60
2022-09-26T03:08:10.039Z,16.60
2022-09-26T03:10:41.039Z,16.60
2022-09-26T03:13:13.326Z,16.60
2022-09-26T03:15:45.204Z,16.60
2022-09-26T03:18:20.389Z,16.60
2022-09-26T03:20:50.300Z,16.60
2022-09-26T03:23:21.935Z,16.60
2022-09-26T03:26:00.571Z,16.60
2022-09-26T03:28:33.995Z,16.60
2022-09-26T03:31:05.619Z,16.60
2022-09-26T03:33:46.441Z,16.60
2022-09-26T03:36:16.379Z,16.50
2022-09-26T03:38:44.951Z,16.50
2022-09-26T03:41:33.053Z,16.50
2022-09-26T03:44:09.504Z,16.50
2022-09-26T03:46:57.765Z,16.50
2022-09-26T03:49:26.239Z,16.50
2022-09-26T03:51:57.318Z,16.50
2022-09-26T03:54:26.225Z,16.50
2022-09-26T03:56:55.613Z,16.50
2022-09-26T03:59:24.041Z,16.50
2022-09-26T04:01:53.331Z,16.50
2022-09-26T04:04:21.903Z,16.50
2022-09-26T04:06:51.247Z,16.50
2022-09-26T04:09:21.559Z,16.50
2022-09-26T04:11:52.876Z,16.50
2022-09-26T04:14:22.599Z,16.50
2022-09-26T04:16:56.912Z,16.40
2022-09-26T04:19:30.004Z,16.40
2022-09-26T04:21:59.579Z,16.50
2022-09-26T04:24:29.695Z,16.40
2022-09-26T04:26:58.124Z,16.40
2022-09-26T04:29:27.265Z,16.50
2022-09-26T04:32:19.790Z,16.40
2022-09-26T04:35:07.236Z,16.40
2022-09-26T04:37:37.156Z,16.40
2022-09-26T04:40:09.483Z,16.40
2022-09-26T04:42:41.864Z,16.40
2022-09-26T04:45:11.203Z,16.40
2022-09-26T04:47:39.559Z,16.40
2022-09-26T04:50:33.574Z,16.40
2022-09-26T04:53:12.314Z,16.40
2022-09-26T04:55:54.932Z,16.40
2022-09-26T04:58:23.412Z,16.40
2022-09-26T05:00:52.584Z,16.40
2022-09-26T05:03:37.106Z,16.40
2022-09-26T05:06:08.166Z,16.40
2022-09-26T05:08:37.531Z,16.40
2022-09-26T05:11:09.514Z,16.40
2022-09-26T05:13:39.014Z,16.40
2022-09-26T05:16:08.956Z,16.40
2022-09-26T05:18:39.339Z,16.40
2022-09-26T05:21:10.881Z,16.40
2022-09-26T05:23:56.634Z,16.40
2022-09-26T05:26:29.483Z,16.40
2022-09-26T05:29:06.974Z,16.40
2022-09-26T05:31:55.243Z,16.40
2022-09-26T05:34:26.231Z,16.30
2022-09-26T05:36:56.560Z,16.30
2022-09-26T05:39:43.354Z,16.30
2022-09-26T05:42:15.463Z,16.30
2022-09-26T05:44:44.587Z,16.30
2022-09-26T05:47:13.385Z,16.30
2022-09-26T05:49:42.034Z,16.30
2022-09-26T05:52:14.723Z,16.30
2022-09-26T05:54:43.174Z,16.30
2022-09-26T05:57:33.138Z,16.30
2022-09-26T06:00:02.529Z,16.30
2022-09-26T06:02:56.160Z,16.30
2022-09-26T06:05:38.321Z,16.30
2022-09-26T06:08:13.299Z,16.30
2022-09-26T06:10:47.111Z,16.30
2022-09-26T06:13:16.810Z,16.30
2022-09-26T06:15:50.539Z,16.20
2022-09-26T06:18:19.407Z,16.20
2022-09-26T06:20:47.771Z,16.20
2022-09-26T06:23:16.371Z,16.20
2022-09-26T06:25:47.216Z,16.20
2022-09-26T06:28:18.143Z,16.20
2022-09-26T06:30:48.834Z,16.20
2022-09-26T06:33:33.287Z,16.20
2022-09-26T06:36:23.446Z,16.20
2022-09-26T06:38:55.966Z,16.20
2022-09-26T06:41:26.596Z,16.20
2022-09-26T06:43:56.962Z,16.20
2022-09-26T06:46:48.680Z,16.20
2022-09-26T06:49:22.178Z,16.20
2022-09-26T06:52:11.228Z,16.20
2022-09-26T06:54:39.716Z,16.20
2022-09-26T06:57:12.908Z,16.20
2022-09-26T06:59:44.954Z,16.20
2022-09-26T07:02:24.052Z,16.20
2022-09-26T07:05:03.225Z,16.20
2022-09-26T07:07:41.934Z,16.10
2022-09-26T07:10:15.225Z,16.20
2022-09-26T07:12:53.466Z,16.10
2022-09-26T07:15:25.215Z,16.10
2022-09-26T07:17:53.597Z,16.10
2022-09-26T07:20:42.810Z,16.10
2022-09-26T07:23:29.692Z,16.10
2022-09-26T07:25:58.250Z,16.10
2022-09-26T07:28:27.908Z,16.10
2022-09-26T07:30:59.690Z,16.10
2022-09-26T07:33:40.722Z,16.10
2022-09-26T07:36:11.991Z,16.10
2022-09-26T07:38:41.398Z,16.10
2022-09-26T07:41:10.923Z,16.10
2022-09-26T07:46:49.274Z,16.10
2022-09-26T07:49:34.841Z,16.10
2022-09-26T07:52:33.387Z,16.10
2022-09-26T07:55:25.702Z,16.00
2022-09-26T07:58:12.576Z,16.00
2022-09-26T08:01:01.889Z,16.00
2022-09-26T08:03:50.079Z,16.00
2022-09-26T08:06:35.014Z,16.00
2022-09-26T08:09:03.941Z,16.10
2022-09-26T08:11:50.777Z,16.00
2022-09-26T08:14:32.885Z,16.00
2022-09-26T08:17:16.780Z,16.00
2022-09-26T08:19:46.531Z,16.00
2022-09-26T08:22:14.807Z,16.10
2022-09-26T08:24:49.732Z,16.00
2022-09-26T08:27:43.795Z,16.00
2022-09-26T08:30:14.380Z,16.00
2022-09-26T08:32:44.546Z,16.00
2022-09-26T08:35:17.177Z,16.00
2022-09-26T08:38:11.563Z,16.00
2022-09-26T08:40:48.194Z,16.00
2022-09-26T08:43:55.253Z,16.00
2022-09-26T08:46:58.561Z,16.00
2022-09-26T08:49:54.374Z,16.00
2022-09-26T08:52:32.107Z,16.00
2022-09-26T08:55:07.721Z,16.00
2022-09-26T08:57:41.859Z,16.00
2022-09-26T09:00:24.267Z,16.00
2022-09-26T09:03:25.775Z,16.00
2022-09-26T09:06:01.596Z,16.00
2022-09-26T09:08:37.150Z,15.90
2022-09-26T09:11:55.932Z,15.90
2022-09-26T09:14:43.304Z,15.90
2022-09-26T09:17:41.385Z,15.90
2022-09-26T09:20:59.002Z,15.90
2022-09-26T09:23:51.807Z,15.90
2022-09-26T09:29:41.934Z,15.90
2022-09-26T09:32:52.510Z,15.90
2022-09-26T09:35:41.425Z,15.90
2022-09-26T09:38:47.703Z,15.90
2022-09-26T09:41:32.775Z,15.90
2022-09-26T09:44:06.629Z,15.90
2022-09-26T09:46:40.732Z,15.90
2022-09-26T09:49:20.321Z,15.90
2022-09-26T09:52:05.934Z,15.90
2022-09-26T09:54:49.949Z,15.90
2022-09-26T09:57:41.702Z,15.90
2022-09-26T10:00:16.970Z,15.90
2022-09-26T10:03:19.238Z,15.90
2022-09-26T10:05:54.359Z,15.90
2022-09-26T10:08:33.989Z,15.90
2022-09-26T10:11:33.320Z,15.90
2022-09-26T10:14:32.622Z,15.90
2022-09-26T10:17:24.945Z,15.90
2022-09-26T10:20:41.311Z,15.90
2022-09-26T10:23:22.454Z,15.90
2022-09-26T10:25:53.673Z,15.90
2022-09-26T10:28:35.973Z,15.90
2022-09-26T10:31:11.724Z,15.90
2022-09-26T10:34:25.150Z,15.90
2022-09-26T10:36:54.779Z,15.90
2022-09-26T10:39:51.687Z,15.90
2022-09-26T10:42:29.916Z,15.90
2022-09-26T10:45:13.679Z,15.90
2022-09-26T10:48:22.265Z,15.90
2022-09-26T10:51:11.528Z,15.90
2022-09-26T10:53:56.592Z,15.80
2022-09-26T10:56:32.066Z,15.80
2022-09-26T10:59:11.421Z,15.80
2022-09-26T11:01:53.233Z,15.80
2022-09-26T11:04:44.583Z,15.80
2022-09-26T11:07:39.228Z,15.80
2022-09-26T11:10:42.080Z,15.80
2022-09-26T11:13:26.551Z,15.80
2022-09-26T11:16:13.346Z,15.80
2022-09-26T11:18:53.452Z,15.80
2022-09-26T11:21:29.271Z,15.80
2022-09-26T11:24:08.635Z,15.80
2022-09-26T11:26:45.275Z,15.80
2022-09-26T11:29:19.183Z,15.80
2022-09-26T11:32:18.006Z,15.80
2022-09-26T11:34:56.976Z,15.80
2022-09-26T11:37:40.830Z,15.80
2022-09-26T11:40:35.101Z,15.80
2022-09-26T11:43:17.048Z,15.80
2022-09-26T11:46:04.811Z,15.80
2022-09-26T11:49:10.827Z,15.80
2022-09-26T11:52:31.028Z,15.80
2022-09-26T11:55:18.651Z,15.80
2022-09-26T11:58:03.396Z,15.80
2022-09-26T12:00:44.928Z,15.80
2022-09-26T12:03:39.830Z,15.80
2022-09-26T12:06:36.181Z,15.80
2022-09-26T12:09:26.061Z,15.80
2022-09-26T12:12:17.204Z,15.80
2022-09-26T12:15:11.137Z,15.80
2022-09-26T12:17:52.691Z,15.70
2022-09-26T12:20:35.094Z,15.80
2022-09-26T12:23:18.652Z,15.70
2022-09-26T12:26:03.248Z,15.80
2022-09-26T12:29:08.974Z,15.80
2022-09-26T12:31:52.192Z,15.80
2022-09-26T12:34:42.235Z,15.70
2022-09-26T12:37:27.344Z,15.80
2022-09-26T12:40:17.334Z,15.80
2022-09-26T12:43:24.544Z,15.70
2022-09-26T12:46:40.713Z,15.80
2022-09-26T12:49:38.108Z,15.80
2022-09-26T12:52:23.819Z,15.70
2022-09-26T12:55:23.293Z,15.80
2022-09-26T12:58:08.441Z,15.80
2022-09-26T13:00:46.691Z,15.70
2022-09-26T13:03:50.100Z,15.70
2022-09-26T13:06:35.178Z,15.80
2022-09-26T13:09:16.073Z,15.70
2022-09-26T13:11:57.241Z,15.70
2022-09-26T13:14:45.798Z,15.70
2022-09-26T13:17:23.642Z,15.70
2022-09-26T13:20:00.111Z,15.80
2022-09-26T13:22:35.573Z,15.80
2022-09-26T13:25:18.966Z,15.70
2022-09-26T13:27:54.652Z,15.80
2022-09-26T13:30:27.027Z,15.80
2022-09-26T13:33:03.578Z,15.70
2022-09-26T13:35:35.906Z,15.70
2022-09-26T13:38:27.536Z,15.80
2022-09-26T13:41:04.762Z,15.70
2022-09-26T13:43:53.465Z,15.70
2022-09-26T13:46:33.341Z,15.70
2022-09-26T13:49:17.834Z,15.80
2022-09-26T13:51:52.625Z,15.70
2022-09-26T13:54:28.117Z,15.80
2022-09-26T13:56:56.549Z,15.70
2022-09-26T13:59:50.303Z,15.80
2022-09-26T14:02:25.432Z,15.70
2022-09-26T14:05:11.189Z,15.70
2022-09-26T14:08:09.625Z,15.70
2022-09-26T14:10:40.032Z,15.80
2022-09-26T14:13:21.993Z,15.70
2022-09-26T14:16:24.667Z,15.70
2022-09-26T14:19:22.014Z,15.70
2022-09-26T14:22:05.866Z,15.80
2022-09-26T14:24:38.044Z,15.70
2022-09-26T14:27:46.198Z,15.70
2022-09-26T14:30:29.506Z,15.80
2022-09-26T14:33:04.560Z,15.80
2022-09-26T14:35:47.733Z,15.70
2022-09-26T14:38:23.149Z,15.80
2022-09-26T14:41:21.457Z,15.80
2022-09-26T14:43:54.033Z,15.70
2022-09-26T14:46:27.090Z,15.70
2022-09-26T14:49:01.793Z,15.70
2022-09-26T14:51:33.324Z,15.70
2022-09-26T14:54:06.659Z,15.70
2022-09-26T14:56:44.039Z,15.70
2022-09-26T14:59:40.174Z,15.70
2022-09-26T15:02:38.754Z,15.70
2022-09-26T15:05:24.719Z,15.70
2022-09-26T15:07:55.610Z,15.70
2022-09-26T15:10:39.205Z,15.70
2022-09-26T15:13:23.880Z,15.70
2022-09-26T15:15:59.036Z,15.70
2022-09-26T15:18:36.109Z,15.70
2022-09-26T15:21:12.214Z,15.70
2022-09-26T15:23:50.910Z,15.70
2022-09-26T15:26:23.703Z,15.70
2022-09-26T15:28:54.223Z,15.70
2022-09-26T15:31:28.977Z,15.70
2022-09-26T15:34:02.840Z,15.70
2022-09-26T15:36:33.591Z,15.70
2022-09-26T15:39:38.167Z,15.70
2022-09-26T15:42:47.397Z,15.70
2022-09-26T15:45:30.125Z,15.70
2022-09-26T15:48:02.139Z,15.70
2022-09-26T15:50:40.407Z,15.70
2022-09-26T15:53:19.722Z,15.70
2022-09-26T15:55:52.939Z,15.70
2022-09-26T15:58:34.885Z,15.70
2022-09-26T16:01:04.031Z,15.70
2022-09-26T16:03:45.507Z,15.70
2022-09-26T16:06:24.063Z,15.70
2022-09-26T16:08:56.608Z,15.70
2022-09-26T16:11:25.992Z,15.70
2022-09-26T16:13:58.161Z,15.70
2022-09-26T16:16:32.116Z,15.70
2022-09-26T16:19:04.116Z,15.70
2022-09-26T16:21:36.602Z,15.60
2022-09-26T16:24:28.162Z,15.70
2022-09-26T16:26:57.628Z,15.70
2022-09-26T16:29:38.945Z,15.70
2022-09-26T16:32:07.691Z,15.70
2022-09-26T16:34:36.368Z,15.70
2022-09-26T16:37:05.127Z,15.70
2022-09-26T16:39:33.962Z,15.70
2022-09-26T16:42:05.857Z,15.70
2022-09-26T16:44:40.943Z,15.70
2022-09-26T16:47:33.506Z,15.60
2022-09-26T16:50:26.578Z,15.60
2022-09-26T16:52:55.730Z,15.60
2022-09-26T16:55:25.698Z,15.70
2022-09-26T16:57:56.804Z,15.70
2022-09-26T17:00:48.853Z,15.60
2022-09-26T17:03:22.788Z,15.60
2022-09-26T17:05:51.996Z,15.60
2022-09-26T17:08:22.104Z,15.60
2022-09-26T17:10:50.637Z,15.60
2022-09-26T17:13:23.232Z,15.60
2022-09-26T17:15:55.550Z,15.60
2022-09-26T17:18:29.349Z,15.60
2022-09-26T17:20:59.112Z,15.60
2022-09-26T17:23:39.973Z,15.60
2022-09-26T17:26:13.464Z,15.60
2022-09-26T17:28:44.183Z,15.60
2022-09-26T17:31:16.770Z,15.60
2022-09-26T17:33:45.278Z,15.60
2022-09-26T17:36:20.741Z,15.60
2022-09-26T17:38:49.241Z,15.60
2022-09-26T17:41:17.871Z,15.60
2022-09-26T17:43:46.689Z,15.60
2022-09-26T17:46:19.094Z,15.60
2022-09-26T17:48:47.513Z,15.60
2022-09-26T17:51:15.932Z,15.60
2022-09-26T17:53:50.390Z,15.60
2022-09-26T17:56:20.380Z,15.60
2022-09-26T17:58:51.985Z,15.60
2022-09-26T18:01:25.452Z,15.60
2022-09-26T18:03:57.168Z,15.60
2022-09-26T18:06:27.540Z,15.60
2022-09-26T18:08:58.321Z,15.60
2022-09-26T18:11:27.134Z,15.60
2022-09-26T18:13:56.945Z,15.60
2022-09-26T18:16:28.086Z,15.60
2022-09-26T18:18:56.531Z,15.60
2022-09-26T18:21:26.455Z,15.60
2022-09-26T18:24:00.916Z,15.60
2022-09-26T18:26:32.315Z,15.60
2022-09-26T18:29:08.255Z,15.60
2022-09-26T18:31:41.436Z,15.60
2022-09-26T18:34:16.420Z,15.60
2022-09-26T18:36:45.784Z,15.60
2022-09-26T18:39:14.468Z,15.60
2022-09-26T18:41:45.068Z,15.60
2022-09-26T18:44:17.614Z,15.60
2022-09-26T18:46:49.407Z,15.50
2022-09-26T18:49:18.433Z,15.60
2022-09-26T18:51:46.930Z,15.60
2022-09-26T18:54:17.693Z,15.50
2022-09-26T18:57:03.453Z,15.60
2022-09-26T18:59:32.236Z,15.50
2022-09-26T19:02:04.227Z,15.60
2022-09-26T19:04:33.994Z,15.50
2022-09-26T19:07:06.993Z,15.50
2022-09-26T19:09:37.033Z,15.60
2022-09-26T19:12:05.743Z,15.50
2022-09-26T19:14:34.155Z,15.50
2022-09-26T19:17:04.947Z,15.50
2022-09-26T19:19:33.607Z,15.50
2022-09-26T19:22:08.158Z,15.50
2022-09-26T19:24:39.231Z,15.50
2022-09-26T19:27:11.908Z,15.60
2022-09-26T19:29:43.655Z,15.60
2022-09-26T19:32:20.621Z,15.50
2022-09-26T19:34:52.354Z,15.50
2022-09-26T19:37:20.841Z,15.60
2022-09-26T19:39:49.343Z,15.60
2022-09-26T19:42:17.793Z,15.60
2022-09-26T19:44:46.568Z,15.60
2022-09-26T19:47:18.787Z,15.60
2022-09-26T19:49:49.390Z,15.60
2022-09-26T19:52:19.793Z,15.60
2022-09-26T19:54:49.685Z,15.60
2022-09-26T19:57:20.163Z,15.60
2022-09-26T19:59:49.489Z,15.60
2022-09-26T20:02:21.634Z,15.60
2022-09-26T20:04:51.979Z,15.60
2022-09-26T20:07:21.322Z,15.60
2022-09-26T20:09:49.676Z,15.60
2022-09-26T20:12:18.606Z,15.50
2022-09-26T20:14:46.886Z,15.60
2022-09-26T20:17:23.145Z,15.60
2022-09-26T20:19:57.762Z,15.60
2022-09-26T20:22:27.565Z,15.50
2022-09-26T20:24:56.795Z,15.50
2022-09-26T20:27:27.968Z,15.50
2022-09-26T20:30:15.139Z,15.50
2022-09-26T20:32:44.879Z,15.50
2022-09-26T20:35:15.390Z,15.50
2022-09-26T20:37:45.112Z,15.50
2022-09-26T20:40:18.235Z,15.50
2022-09-26T20:42:49.706Z,15.50
2022-09-26T20:45:21.048Z,15.50
2022-09-26T20:47:50.726Z,15.50
2022-09-26T20:50:20.798Z,15.50
2022-09-26T20:52:49.360Z,15.50
2022-09-26T20:55:19.733Z,15.50
2022-09-26T20:57:48.093Z,15.50
2022-09-26T21:00:17.617Z,15.50
2022-09-26T21:02:47.870Z,15.50
2022-09-26T21:05:21.186Z,15.50
2022-09-26T21:07:50.886Z,15.50
2022-09-26T21:10:25.046Z,15.50
2022-09-26T21:12:53.785Z,15.50
2022-09-26T21:15:22.643Z,15.50
2022-09-26T21:17:52.125Z,15.50
2022-09-26T21:20:25.551Z,15.50
2022-09-26T21:23:18.028Z,15.50
2022-09-26T21:25:46.592Z,15.50
2022-09-26T21:28:26.273Z,15.50
2022-09-26T21:30:55.897Z,15.50
2022-09-26T21:33:24.671Z,15.50
2022-09-26T21:35:54.581Z,15.50
2022-09-26T21:38:23.670Z,15.50
2022-09-26T21:40:56.182Z,15.50
2022-09-26T21:43:29.134Z,15.50
2022-09-26T21:45:57.525Z,15.50
2022-09-26T21:48:27.579Z,15.50
2022-09-26T21:51:00.226Z,15.50
2022-09-26T21:53:32.337Z,15.50
2022-09-26T21:56:07.707Z,15.50
2022-09-26T21:58:38.754Z,15.50
2022-09-26T22:01:07.272Z,15.50
2022-09-26T22:03:35.846Z,15.50
2022-09-26T22:06:07.523Z,15.40
2022-09-26T22:08:36.731Z,15.50
2022-09-26T22:11:05.490Z,15.50
2022-09-26T22:13:35.769Z,15.50
2022-09-26T22:16:07.718Z,15.50
2022-09-26T22:18:37.167Z,15.40
2022-09-26T22:21:07.236Z,15.50
2022-09-26T22:23:36.832Z,15.40
2022-09-26T22:26:05.376Z,15.50
2022-09-26T22:28:34.022Z,15.50
2022-09-26T22:31:03.130Z,15.40
2022-09-26T22:33:31.899Z,15.50
2022-09-26T22:36:00.275Z,15.40
2022-09-26T22:38:30.189Z,15.50
2022-09-26T22:40:59.705Z,15.50
2022-09-26T22:43:28.540Z,15.40
2022-09-26T22:46:03.206Z,15.40
2022-09-26T22:48:33.208Z,15.50
2022-09-26T22:51:01.656Z,15.50
2022-09-26T22:53:32.747Z,15.40
2022-09-26T22:56:05.250Z,15.50
2022-09-26T22:58:36.658Z,15.40
2022-09-26T23:01:06.449Z,15.50
2022-09-26T23:03:35.129Z,15.40
2022-09-26T23:06:04.422Z,15.40
2022-09-26T23:08:35.372Z,15.40
2022-09-26T23:11:04.887Z,15.40
2022-09-26T23:13:35.629Z,15.40
2022-09-26T23:16:08.148Z,15.40
2022-09-26T23:18:39.341Z,15.40
2022-09-26T23:21:09.326Z,15.40
2022-09-26T23:23:39.722Z,15.40
2022-09-26T23:26:08.977Z,15.40
2022-09-26T23:28:37.309Z,15.40
2022-09-26T23:31:06.954Z,15.40
2022-09-26T23:33:36.684Z,15.40
2022-09-26T23:36:05.789Z,15.40
2022-09-26T23:38:35.130Z,15.40
2022-09-26T23:41:04.862Z,15.40
2022-09-26T23:43:33.175Z,15.40
2022-09-26T23:46:01.758Z,15.40
2022-09-26T23:48:30.148Z,15.40
2022-09-26T23:50:58.767Z,15.40
2022-09-26T23:53:27.189Z,15.40
2022-09-26T23:56:05.540Z,15.40
2022-09-26T23:58:34.264Z,15.40
